Time;durP1;ratioP1;P1;durP2;ratioP2;P2;SDS_P1;SDS_P2;PMS_P1;PMS_P2;Temp;Humidity;BMP_temperature;BMP_pressure;BME280_temperature;BME280_humidity;BME280_pressure;Samples;Min_cycle;Max_cycle;Signal;HPM_P1;HPM_P2
2022/05/04 00:00:46;;;;;;;3.10;1.98;;;;;;;8.72;65.06;101885.13;5033745;28;20018;-76
2022/05/04 00:03:11;;;;;;;2.67;2.00;;;;;;;8.72;64.93;101885.13;5034687;28;20037;-76
2022/05/04 00:05:37;;;;;;;2.23;2.03;;;;;;;8.73;64.80;101886.88;5034702;28;20021;-76
2022/05/04 00:08:02;;;;;;;5.97;2.40;;;;;;;8.68;65.06;101879.91;5033888;28;20049;-76
2022/05/04 00:10:28;;;;;;;3.88;2.30;;;;;;;8.61;65.90;101877.25;5034535;28;20045;-76
2022/05/04 00:12:53;;;;;;;2.90;2.20;;;;;;;8.60;65.57;101882.44;5034274;28;20033;-76
2022/05/04 00:15:19;;;;;;;3.92;2.15;;;;;;;8.55;65.16;101876.34;5033693;28;20363;-76
2022/05/04 00:17:47;;;;;;;2.93;2.13;;;;;;;8.55;65.58;101882.38;5034133;28;20535;-76
2022/05/04 00:20:12;;;;;;;2.70;2.10;;;;;;;8.56;66.97;101883.25;5034272;28;20088;-76
2022/05/04 00:22:37;;;;;;;2.67;2.10;;;;;;;8.56;65.38;101878.06;5033393;28;20470;-76
2022/05/04 00:25:03;;;;;;;2.63;2.10;;;;;;;8.56;65.35;101878.06;5034124;28;20033;-76
2022/05/04 00:27:28;;;;;;;3.35;1.92;;;;;;;8.55;65.93;101894.47;5034139;28;20401;-76
2022/05/04 00:29:57;;;;;;;6.40;2.40;;;;;;;8.60;65.66;101880.72;5033322;28;20075;-76
2022/05/04 00:32:22;;;;;;;3.80;2.60;;;;;;;8.55;65.72;101882.38;5033824;28;20037;-76
2022/05/04 00:34:50;;;;;;;3.93;2.47;;;;;;;8.58;65.99;101877.25;5033120;28;20075;-76
2022/05/04 00:37:15;;;;;;;2.75;2.00;;;;;;;8.59;66.35;101876.41;5034142;28;20108;-76
2022/05/04 00:39:41;;;;;;;2.20;2.00;;;;;;;8.64;65.61;101884.22;5033364;28;20129;-76
2022/05/04 00:42:12;;;;;;;3.70;2.23;;;;;;;8.64;65.69;101887.66;5033296;28;20040;-76
2022/05/04 00:44:39;;;;;;;3.47;2.63;;;;;;;8.64;66.47;101882.47;5033532;28;20021;-76
2022/05/04 00:47:05;;;;;;;2.88;2.20;;;;;;;8.66;65.50;101879.91;5033945;28;20021;-76
2022/05/04 00:49:31;;;;;;;4.15;2.30;;;;;;;8.67;65.48;101884.22;5032997;28;20482;-76
2022/05/04 00:51:56;;;;;;;2.22;2.00;;;;;;;8.69;65.88;101881.66;5033177;28;20132;-76
2022/05/04 00:54:24;;;;;;;2.30;2.10;;;;;;;8.70;66.31;101879.06;5033863;28;20029;-76
2022/05/04 00:56:51;;;;;;;2.28;2.05;;;;;;;8.72;66.17;101881.69;5032627;28;20075;-76
2022/05/04 00:59:16;;;;;;;3.35;2.22;;;;;;;8.71;66.44;101878.22;5033689;28;20025;-77
2022/05/04 01:01:42;;;;;;;4.33;2.50;;;;;;;8.73;65.88;101871.34;5032977;28;20033;-76
2022/05/04 01:04:07;;;;;;;4.90;2.53;;;;;;;8.69;66.40;101871.31;5033001;28;20033;-76
2022/05/04 01:06:33;;;;;;;5.53;2.73;;;;;;;8.70;66.43;101873.03;5033248;28;20057;-76
2022/05/04 01:08:58;;;;;;;3.37;2.30;;;;;;;8.71;65.55;101872.19;5033257;28;20033;-76
2022/05/04 01:11:24;;;;;;;3.57;2.40;;;;;;;8.71;66.02;101867.88;5032891;28;20381;-76
2022/05/04 01:13:59;;;;;;;2.40;2.20;;;;;;;8.74;65.67;101872.19;5033236;28;20025;-76
2022/05/04 01:16:25;;;;;;;3.30;2.30;;;;;;;8.75;65.85;101868.75;5033022;28;20037;-76
2022/05/04 01:18:50;;;;;;;5.07;2.50;;;;;;;8.74;65.79;101872.19;5032419;28;20033;-76
2022/05/04 01:21:15;;;;;;;3.97;2.35;;;;;;;8.74;65.90;101874.78;5033424;28;20366;-76
2022/05/04 01:23:42;;;;;;;3.23;2.67;;;;;;;8.72;66.09;101877.38;5032961;28;20033;-76
2022/05/04 01:26:07;;;;;;;;;;;;;;;8.71;66.28;101873.03;5032911;28;20032;-76
2022/05/04 01:28:33;;;;;;;3.77;3.00;;;;;;;8.70;66.59;101881.66;5032878;28;19908;-76
2022/05/04 01:30:58;;;;;;;5.32;2.60;;;;;;;8.67;66.67;101881.63;5031527;28;20220;-76
2022/05/04 01:33:26;;;;;;;5.33;2.50;;;;;;;8.69;65.33;101876.47;5033275;28;20099;-76
2022/05/04 01:35:51;;;;;;;3.38;2.28;;;;;;;8.69;65.83;101879.91;5032996;28;20038;-76
2022/05/04 01:38:17;;;;;;;5.20;2.73;;;;;;;8.71;67.09;101874.78;5032421;28;20044;-76
2022/05/04 01:40:42;;;;;;;3.80;2.60;;;;;;;8.71;66.48;101874.78;5032693;28;20025;-76
2022/05/04 01:43:07;;;;;;;5.40;2.85;;;;;;;8.69;66.44;101879.91;5032944;28;20044;-76
2022/05/04 01:45:33;;;;;;;5.10;2.80;;;;;;;8.68;66.98;101875.59;5032504;28;20382;-76
2022/05/04 01:47:58;;;;;;;6.45;2.90;;;;;;;8.69;66.15;101869.56;5032769;28;20151;-76
2022/05/04 01:50:23;;;;;;;3.77;2.60;;;;;;;8.71;66.95;101867.03;5032959;28;20381;-76
2022/05/04 01:52:48;;;;;;;3.93;2.57;;;;;;;8.71;66.92;101865.28;5031609;28;20054;-76
2022/05/04 01:55:14;;;;;;;3.63;2.50;;;;;;;8.71;65.73;101870.47;5032367;28;20146;-76
2022/05/04 01:57:40;;;;;;;2.77;2.37;;;;;;;8.76;65.93;101866.19;5032338;28;20029;-76
2022/05/04 02:00:07;;;;;;;3.63;2.27;;;;;;;8.79;65.81;101867.94;5032006;28;20030;-76
2022/05/04 02:02:33;;;;;;;2.63;1.90;;;;;;;8.78;66.21;101869.66;5032793;28;20112;-76
2022/05/04 02:04:59;;;;;;;1.90;1.77;;;;;;;8.78;65.97;101866.22;5032548;28;20047;-76
2022/05/04 02:07:24;;;;;;;1.70;1.60;;;;;;;8.78;65.78;101869.66;5031823;28;20458;-76
2022/05/04 02:09:49;;;;;;;3.35;2.17;;;;;;;8.77;65.91;101869.66;5032264;28;20031;-76
2022/05/04 02:12:15;;;;;;;3.17;2.00;;;;;;;8.75;66.09;101869.66;5032507;28;20031;-76
2022/05/04 02:14:40;;;;;;;3.10;2.20;;;;;;;8.75;66.33;101858.41;5031714;28;20035;-76
2022/05/04 02:17:05;;;;;;;4.32;2.30;;;;;;;8.74;65.58;101861.84;5032949;28;20040;-76
2022/05/04 02:19:31;;;;;;;5.70;2.73;;;;;;;8.71;66.05;101865.28;5036083;28;20025;-76
2022/05/04 02:21:56;;;;;;;3.90;2.30;;;;;;;8.70;67.06;101860.94;5035562;28;20302;-76
2022/05/04 02:24:22;;;;;;;5.80;2.90;;;;;;;8.67;66.44;101873.84;5036536;28;20022;-76
2022/05/04 02:26:47;;;;;;;5.10;3.10;;;;;;;8.65;66.10;101860.06;5036173;28;20489;-76
2022/05/04 02:29:12;;;;;;;4.60;2.97;;;;;;;8.63;66.13;101856.59;5035629;28;20021;-76
2022/05/04 02:31:37;;;;;;;6.20;3.53;;;;;;;8.55;66.88;101856.50;5036097;28;20033;-76
2022/05/04 02:34:05;;;;;;;5.55;3.10;;;;;;;8.54;66.62;101859.09;5036546;28;20040;-76
2022/05/04 02:39:14;;;;;;;3.10;2.40;;;;;;;8.55;65.87;101856.50;5036356;28;20041;-76
2022/05/04 02:41:40;;;;;;;3.83;2.50;;;;;;;8.58;66.18;101858.25;5035223;28;20461;-76
2022/05/04 02:44:05;;;;;;;2.70;2.20;;;;;;;8.59;66.18;101857.41;5036378;28;20022;-76
2022/05/04 02:46:31;;;;;;;5.87;2.70;;;;;;;8.60;66.19;101851.38;5036295;28;20038;-76
2022/05/04 02:48:56;;;;;;;5.47;2.50;;;;;;;8.60;65.88;101853.97;5035140;28;20064;-76
2022/05/04 02:51:22;;;;;;;3.67;2.38;;;;;;;8.60;66.62;101857.44;5036129;28;20042;-76
2022/05/04 02:53:47;;;;;;;3.97;2.80;;;;;;;8.58;66.34;101848.78;5035689;28;20037;-76
2022/05/04 02:56:15;;;;;;;4.90;3.08;;;;;;;8.56;66.50;101847.00;5034297;28;20181;-76
2022/05/04 02:58:41;;;;;;;4.60;2.80;;;;;;;8.52;66.27;101851.31;5035631;28;20500;-76
2022/05/04 03:04:02;;;;;;;4.03;2.53;;;;;;;8.47;65.73;101846.09;5035121;28;20392;-76
2022/05/04 03:06:28;;;;;;;5.20;2.72;;;;;;;8.47;66.31;101845.19;5035703;28;20029;-76
2022/05/04 03:08:53;;;;;;;4.20;2.53;;;;;;;8.47;65.95;101843.50;5035772;28;20026;-76
2022/05/04 03:14:07;;;;;;;7.25;3.00;;;;;;;8.38;66.18;101838.22;5035790;28;20075;-76
2022/05/04 03:16:33;;;;;;;4.63;2.78;;;;;;;8.36;66.03;101832.16;5034763;28;20026;-76
2022/05/04 03:18:59;;;;;;;4.47;2.70;;;;;;;8.39;66.06;101839.94;5035239;28;20477;-76
2022/05/04 03:21:26;;;;;;;5.40;2.50;;;;;;;8.41;65.66;101839.94;5035131;28;20069;-76
2022/05/04 03:23:52;;;;;;;2.88;2.10;;;;;;;8.42;66.02;101839.97;5034427;28;20037;-76
2022/05/04 03:26:18;;;;;;;2.33;2.03;;;;;;;8.42;65.93;101839.09;5035440;28;20030;-76
2022/05/04 03:28:44;;;;;;;2.55;2.08;;;;;;;8.50;65.34;101833.19;5034653;28;20079;-76
2022/05/04 03:31:09;;;;;;;3.33;2.30;;;;;;;8.41;65.97;101829.59;5033635;28;20116;-76
2022/05/04 03:33:34;;;;;;;2.83;2.10;;;;;;;8.39;66.09;101829.59;5034118;28;20033;-76
2022/05/04 03:36:00;;;;;;;2.40;1.97;;;;;;;8.40;66.06;101831.34;5035065;28;20025;-76
2022/05/04 03:38:25;;;;;;;2.20;2.00;;;;;;;8.37;65.77;101831.31;5034611;28;20474;-76
2022/05/04 03:40:50;;;;;;;2.07;1.97;;;;;;;8.36;65.72;101829.56;5034682;28;20037;-76
2022/05/04 03:43:15;;;;;;;2.30;1.90;;;;;;;8.35;66.12;101833.00;5035178;28;20033;-76
2022/05/04 03:45:40;;;;;;;2.10;1.90;;;;;;;8.33;65.75;101834.72;5034110;28;20040;-76
2022/05/04 03:48:06;;;;;;;1.93;1.70;;;;;;;8.32;66.04;101828.66;5035103;28;20029;-76
2022/05/04 03:50:31;;;;;;;2.50;1.70;;;;;;;8.31;66.27;101834.69;5034795;28;20089;-76
2022/05/04 03:52:56;;;;;;;1.70;1.60;;;;;;;8.32;66.05;101827.81;5033789;28;20096;-77
2022/05/04 03:55:22;;;;;;;2.50;1.83;;;;;;;8.31;66.06;101833.84;5034935;28;20022;-77
2022/05/04 03:57:47;;;;;;;2.33;2.00;;;;;;;8.27;66.80;101826.88;5034545;28;20389;-77
2022/05/04 04:00:13;;;;;;;2.10;1.90;;;;;;;8.26;65.92;101831.22;5034140;28;20025;-76
2022/05/04 04:02:38;;;;;;;3.33;1.80;;;;;;;8.25;65.80;101832.06;5034548;28;20033;-75
2022/05/04 04:05:04;;;;;;;3.50;2.03;;;;;;;8.24;65.59;101838.06;5034370;28;20027;-75
2022/05/04 04:07:29;;;;;;;3.73;2.47;;;;;;;8.18;66.02;101840.56;5033453;28;20125;-75
2022/05/04 04:09:54;;;;;;;4.97;2.33;;;;;;;8.14;65.92;101836.25;5034311;28;20053;-75
2022/05/04 04:12:19;;;;;;;3.73;2.37;;;;;;;8.15;65.47;101835.41;5034676;28;20026;-75
2022/05/04 04:14:45;;;;;;;4.10;2.50;;;;;;;8.14;65.79;101828.50;5033659;28;20378;-75
2022/05/04 04:17:10;;;;;;;2.37;2.10;;;;;;;8.13;65.91;101834.50;5034627;28;20034;-75
2022/05/04 04:19:35;;;;;;;2.90;2.10;;;;;;;8.10;66.52;101831.88;5034434;28;20033;-75
2022/05/04 04:22:03;;;;;;;2.77;2.13;;;;;;;8.07;65.63;101832.72;5033588;28;20040;-75
2022/05/04 04:24:29;;;;;;;2.30;2.10;;;;;;;8.06;66.07;101825.81;5034461;28;20026;-75
2022/05/04 04:26:55;;;;;;;2.10;1.90;;;;;;;8.07;65.98;101830.13;5032913;28;20028;-75
2022/05/04 04:29:20;;;;;;;2.83;2.00;;;;;;;8.06;66.07;101833.56;5034416;28;20087;-76
2022/05/04 04:31:46;;;;;;;2.10;1.90;;;;;;;8.04;66.36;101840.44;5032511;28;20029;-76
2022/05/04 04:34:14;;;;;;;3.33;1.90;;;;;;;8.02;65.88;101839.53;5032076;28;20117;-76
2022/05/04 04:36:40;;;;;;;3.55;2.30;;;;;;;7.94;67.58;101842.03;5033279;28;20533;-76
2022/05/04 04:39:05;;;;;;;4.67;2.50;;;;;;;7.91;66.63;101849.78;5034256;28;20108;-76
2022/05/04 04:41:31;;;;;;;2.60;1.95;;;;;;;7.91;66.35;101847.19;5032512;28;20108;-76
2022/05/04 04:43:56;;;;;;;2.25;2.05;;;;;;;7.92;66.67;101848.94;5033703;28;20065;-76
2022/05/04 04:46:22;;;;;;;3.23;2.27;;;;;;;7.89;67.13;101851.47;5033860;28;20029;-76
2022/05/04 04:48:47;;;;;;;3.60;2.10;;;;;;;7.86;67.21;101843.66;5032417;28;20025;-76
2022/05/04 04:51:13;;;;;;;4.18;2.25;;;;;;;7.84;67.12;101845.38;5033636;28;20050;-76
2022/05/04 04:53:38;;;;;;;2.45;2.08;;;;;;;7.85;67.15;101849.69;5033465;28;20018;-76
2022/05/04 04:56:04;;;;;;;7.28;3.05;;;;;;;7.79;67.80;101837.56;5032636;28;20036;-77
2022/05/04 04:58:30;;;;;;;5.65;2.85;;;;;;;7.75;67.38;101846.16;5033795;28;20033;-76
2022/05/04 05:00:56;;;;;;;4.30;2.90;;;;;;;7.74;68.10;101844.41;5031900;28;20037;-77
2022/05/04 05:03:21;;;;;;;8.57;3.60;;;;;;;7.70;68.59;101846.09;5031578;28;20029;-76
2022/05/04 05:05:46;;;;;;;7.20;3.23;;;;;;;7.69;68.02;101846.94;5032622;28;20056;-76
2022/05/04 05:08:12;;;;;;;3.90;2.83;;;;;;;7.70;68.03;101845.19;5032380;28;20113;-76
2022/05/04 05:10:37;;;;;;;5.35;2.97;;;;;;;7.71;67.37;101839.19;5032377;28;20113;-76
2022/05/04 05:13:03;;;;;;;5.20;2.90;;;;;;;7.67;67.12;101843.44;5033440;28;20473;-76
2022/05/04 05:18:12;;;;;;;2.80;2.25;;;;;;;7.73;66.77;101853.00;5032984;28;20060;-76
2022/05/04 05:20:37;;;;;;;3.33;2.60;;;;;;;7.77;67.49;101848.72;5032628;28;20485;-76
2022/05/04 05:23:05;;;;;;;3.47;2.67;;;;;;;7.79;67.06;101853.06;5032009;28;20022;-76
2022/05/04 05:25:32;;;;;;;2.80;2.30;;;;;;;7.85;66.91;101854.84;5032621;28;20106;-76
2022/05/04 05:27:58;;;;;;;3.38;2.60;;;;;;;7.89;67.13;101856.63;5032958;28;20496;-76
2022/05/04 05:30:23;;;;;;;8.17;3.40;;;;;;;7.86;68.14;101854.00;5031628;28;20029;-76
2022/05/04 05:32:49;;;;;;;6.07;3.20;;;;;;;7.86;67.01;101854.91;5032886;28;20030;-77
2022/05/04 05:35:16;;;;;;;5.50;3.10;;;;;;;7.87;67.37;101859.22;5032025;28;20033;-77
2022/05/04 05:37:42;;;;;;;4.38;3.00;;;;;;;7.90;67.09;101848.03;5031954;28;20030;-77
2022/05/04 05:40:08;;;;;;;5.77;3.40;;;;;;;7.89;66.78;101849.75;5033000;28;20030;-77
2022/05/04 05:42:35;;;;;;;4.63;2.85;;;;;;;7.93;68.04;101848.09;5032856;28;20029;-77
2022/05/04 05:45:00;;;;;;;6.88;3.50;;;;;;;7.91;67.76;101846.31;5031809;28;20075;-77
2022/05/04 05:47:25;;;;;;;8.83;3.60;;;;;;;7.87;68.01;101842.81;5032411;28;20108;-77
2022/05/04 05:49:50;;;;;;;5.25;3.20;;;;;;;7.91;67.76;101854.06;5032372;28;20033;-77
2022/05/04 05:52:16;;;;;;;6.07;3.28;;;;;;;7.94;68.30;101856.69;5031693;28;20492;-77
2022/05/04 05:54:41;;;;;;;6.93;3.33;;;;;;;7.98;67.69;101855.91;5032398;28;20470;-77
2022/05/04 05:57:06;;;;;;;5.13;3.00;;;;;;;8.04;67.87;101858.53;5032198;28;20022;-77
2022/05/04 05:59:33;;;;;;;9.30;4.00;;;;;;;8.06;67.77;101859.44;5031174;28;20045;-77
2022/05/04 06:01:58;;;;;;;8.97;3.83;;;;;;;8.11;67.87;101862.06;5032336;28;20040;-77
2022/05/04 06:04:23;;;;;;;6.95;3.60;;;;;;;8.14;67.34;101857.78;5031375;28;20044;-77
2022/05/04 06:06:48;;;;;;;7.75;3.65;;;;;;;8.17;68.12;101855.25;5028733;28;20037;-78
2022/05/04 06:09:13;;;;;;;5.57;3.22;;;;;;;8.25;67.20;101864.78;5032353;28;20478;-78
2022/05/04 06:11:39;;;;;;;5.88;3.20;;;;;;;8.35;67.40;101861.44;5032001;28;20044;-78
2022/05/04 06:14:04;;;;;;;7.82;3.40;;;;;;;8.40;67.11;101857.22;5031395;28;20041;-77
2022/05/04 06:16:29;;;;;;;8.65;4.20;;;;;;;8.42;67.01;101865.84;5014195;28;20025;-77
2022/05/04 06:18:55;;;;;;;10.87;4.30;;;;;;;8.43;67.23;101865.00;5032074;28;20075;-78
2022/05/04 06:21:20;;;;;;;14.77;5.03;;;;;;;8.43;66.90;101867.59;5031519;28;20021;-77
2022/05/04 06:23:46;;;;;;;10.60;4.60;;;;;;;8.49;66.69;101865.09;5031829;28;20014;-75
2022/05/04 06:26:11;;;;;;;10.53;4.23;;;;;;;8.58;66.76;101871.19;5031674;28;20091;-78
2022/05/04 06:28:36;;;;;;;11.07;4.35;;;;;;;8.65;66.42;101873.84;5031043;28;20029;-77
2022/05/04 06:36:29;;;;;;;8.32;3.95;;;;;;;8.90;65.30;101875.78;5023704;28;20043;-77
2022/05/04 06:38:54;;;;;;;9.80;3.87;;;;;;;9.08;65.50;101870.78;5031623;28;20021;-77
2022/05/04 06:41:20;;;;;;;8.30;3.53;;;;;;;9.74;64.68;101878.06;5031143;28;20036;-77
2022/05/04 06:43:45;;;;;;;11.93;4.73;;;;;;;10.80;59.78;101868.84;5031950;28;20053;-78
2022/05/04 06:46:11;;;;;;;14.33;5.13;;;;;;;12.48;54.88;101870.94;5032146;28;20076;-78
2022/05/04 06:48:36;;;;;;;13.52;4.57;;;;;;;13.47;54.10;101877.06;5031058;28;20385;-78
2022/05/04 06:51:02;;;;;;;11.03;4.10;;;;;;;13.75;54.45;101880.22;5031756;28;20124;-78
2022/05/04 06:53:27;;;;;;;10.30;4.20;;;;;;;13.74;52.39;101875.88;5014136;28;20045;-77
2022/05/04 06:55:53;;;;;;;13.03;4.57;;;;;;;13.62;48.82;101878.63;5030248;28;20132;-79
2022/05/04 06:58:18;;;;;;;15.67;4.80;;;;;;;12.92;52.22;101876.69;5031752;28;20108;-78
2022/05/04 07:00:44;;;;;;;10.87;4.27;;;;;;;12.95;51.87;101872.31;5031697;28;20032;-78
2022/05/04 07:03:09;;;;;;;8.53;3.53;;;;;;;12.97;53.98;101880.09;5031374;28;20029;-78
2022/05/04 07:05:34;;;;;;;13.33;4.30;;;;;;;13.11;51.97;101867.81;5035449;28;20029;-78
2022/05/04 07:08:03;;;;;;;11.10;4.40;;;;;;;12.98;51.91;101866.19;5035016;28;20231;-77
2022/05/04 07:10:28;;;;;;;8.93;3.60;;;;;;;13.17;53.50;101871.25;5033555;28;20048;-77
2022/05/04 07:12:53;;;;;;;8.07;3.30;;;;;;;13.52;52.49;101870.91;5035111;28;20436;-77
2022/05/04 07:15:19;;;;;;;12.30;4.60;;;;;;;13.21;50.23;101879.03;5035110;28;20032;-77
2022/05/04 07:17:44;;;;;;;9.87;3.70;;;;;;;12.91;52.81;101875.81;5033687;28;20105;-77
2022/05/04 07:20:10;;;;;;;9.70;3.80;;;;;;;12.85;50.80;101870.66;5034495;28;20025;-77
2022/05/04 07:22:36;;;;;;;11.70;4.80;;;;;;;12.18;51.54;101872.88;5034390;28;20095;-76
2022/05/04 07:25:02;;;;;;;8.90;4.13;;;;;;;12.02;52.88;101869.47;5035261;28;20056;-76
2022/05/04 07:27:27;;;;;;;8.50;4.00;;;;;;;11.84;54.24;101873.00;5035147;28;20288;-78
2022/05/04 07:29:59;;;;;;;7.37;3.57;;;;;;;11.82;55.13;101870.38;5034266;28;20437;-76
2022/05/04 07:32:24;;;;;;;6.43;3.28;;;;;;;12.00;55.39;101861.66;5034485;28;20097;-77
2022/05/04 07:34:49;;;;;;;10.97;3.83;;;;;;;12.17;53.32;101861.56;5034916;28;20555;-77
2022/05/04 07:37:14;;;;;;;11.53;4.53;;;;;;;11.93;53.22;101865.16;5034406;28;20075;-77
2022/05/04 07:42:24;;;;;;;9.65;3.90;;;;;;;11.97;54.46;101869.47;5015439;28;20394;-80
2022/05/04 07:44:53;;;;;;;7.23;3.60;;;;;;;12.02;55.29;101867.72;5013876;28;20034;-80
2022/05/04 07:47:19;;;;;;;11.38;4.25;;;;;;;12.09;54.29;101870.31;5032367;28;20033;-79
2022/05/04 07:49:48;;;;;;;12.67;4.37;;;;;;;12.08;54.27;101865.97;5034586;28;20032;-79
2022/05/04 07:52:13;;;;;;;13.98;4.90;;;;;;;11.89;53.74;101873.81;5034034;28;20033;-79
2022/05/04 07:54:38;;;;;;;9.20;4.20;;;;;;;11.94;54.61;101879.00;5034665;28;20034;-78
2022/05/04 07:57:04;;;;;;;6.97;3.40;;;;;;;12.05;54.62;101877.25;5035132;28;20028;-79
2022/05/04 07:59:30;;;;;;;7.80;3.50;;;;;;;12.16;54.80;101879.81;5032935;28;20425;-79
2022/05/04 08:04:39;;;;;;;12.90;5.13;;;;;;;11.99;53.01;101878.13;5034534;28;20091;-79
2022/05/04 08:07:04;;;;;;;8.30;4.43;;;;;;;11.99;54.40;101875.53;5033698;28;20051;-77
2022/05/04 08:09:34;;;;;;;9.73;3.73;;;;;;;12.22;54.20;101884.97;5034318;28;20026;-80
2022/05/04 08:11:59;;;;;;;12.93;4.45;;;;;;;12.29;54.06;101886.69;5033247;28;20071;-80
2022/05/04 08:14:25;;;;;;;10.47;4.50;;;;;;;12.31;52.75;101869.31;5034601;28;20068;-79
2022/05/04 08:16:50;;;;;;;10.83;4.80;;;;;;;12.37;53.06;101881.44;5034226;28;20025;-79
2022/05/04 08:19:15;;;;;;;10.13;4.80;;;;;;;12.44;53.11;101870.09;5033442;28;20493;-79
2022/05/04 08:21:41;;;;;;;7.03;4.00;;;;;;;12.60;54.44;101872.59;5033856;28;20060;-78
2022/05/04 08:24:06;;;;;;;5.00;3.20;;;;;;;12.80;54.33;101873.31;5034696;28;20026;-79
2022/05/04 08:26:44;;;;;;;9.13;4.50;;;;;;;12.92;53.27;101871.47;5033696;28;20510;-78
2022/05/04 08:29:10;;;;;;;10.98;4.72;;;;;;;12.97;53.07;101875.78;5034548;28;20025;-78
2022/05/04 08:31:36;;;;;;;6.57;3.53;;;;;;;13.05;53.44;101875.72;5033727;28;20436;-78
2022/05/04 08:34:01;;;;;;;9.43;4.15;;;;;;;13.20;51.67;101873.81;5032324;28;20477;-78
2022/05/04 08:36:27;;;;;;;9.90;4.40;;;;;;;13.14;52.01;101877.34;5034122;28;20033;-78
2022/05/04 08:38:52;;;;;;;7.90;4.00;;;;;;;13.22;53.44;101877.28;5033584;28;20025;-78
2022/05/04 08:41:18;;;;;;;7.47;4.13;;;;;;;13.43;52.30;101874.47;5032954;28;20469;-79
2022/05/04 08:43:44;;;;;;;9.40;4.63;;;;;;;13.43;52.92;101876.25;5033781;28;20075;-78
2022/05/04 08:46:13;;;;;;;5.93;3.63;;;;;;;13.55;52.95;101877.84;5033965;28;20031;-78
2022/05/04 08:48:40;;;;;;;5.30;3.05;;;;;;;13.72;52.63;101881.13;5032832;28;20036;-78
2022/05/04 08:51:05;;;;;;;11.95;4.78;;;;;;;13.70;50.33;101871.56;5033869;28;20088;-77
2022/05/04 08:53:31;;;;;;;9.50;4.60;;;;;;;13.51;52.19;101877.00;5033740;28;20417;-77
2022/05/04 08:55:57;;;;;;;6.88;4.03;;;;;;;13.52;52.86;101875.25;5032509;28;20022;-77
2022/05/04 08:58:23;;;;;;;11.95;5.43;;;;;;;13.56;50.99;101866.53;5033653;28;20469;-77
2022/05/04 09:00:48;;;;;;;11.93;5.60;;;;;;;13.36;50.64;101861.50;5033011;28;20051;-78
2022/05/04 09:03:18;;;;;;;13.37;6.27;;;;;;;13.29;51.64;101868.50;5032280;28;20037;-78
2022/05/04 09:05:46;;;;;;;7.88;4.45;;;;;;;13.39;52.19;101867.59;5013441;28;20487;-78
2022/05/04 09:08:12;;;;;;;7.38;3.90;;;;;;;13.69;52.29;101869.84;5013106;28;20482;-78
2022/05/04 09:10:39;;;;;;;9.33;4.90;;;;;;;13.92;50.06;101872.19;5013521;28;20084;-78
2022/05/04 09:13:06;;;;;;;9.00;4.65;;;;;;;14.03;51.78;101864.19;5013619;28;20021;-78
2022/05/04 09:15:33;;;;;;;7.40;3.65;;;;;;;14.19;51.49;101868.34;5013068;28;20044;-78
2022/05/04 09:18:01;;;;;;;5.88;3.53;;;;;;;14.40;50.73;101857.63;5013232;28;20072;-78
2022/05/04 09:23:19;;;;;;;5.45;3.10;;;;;;;14.67;51.80;101856.34;5013057;28;20509;-77
2022/05/04 09:25:47;;;;;;;4.70;3.08;;;;;;;14.95;49.01;101856.75;5012686;28;20079;-78
2022/05/04 09:28:15;;;;;;;10.20;4.95;;;;;;;14.79;48.75;101856.16;5029181;28;20044;-78
2022/05/04 09:30:45;;;;;;;8.35;4.60;;;;;;;14.74;47.53;101852.75;5032161;28;20021;-78
2022/05/04 09:33:13;;;;;;;7.97;3.95;;;;;;;14.85;50.13;101849.97;5033127;28;20401;-78
2022/05/04 09:35:41;;;;;;;5.80;3.40;;;;;;;15.07;50.40;101854.81;5032207;28;20104;-78
2022/05/04 09:46:38;;;;;;;6.85;3.75;;;;;;;15.16;49.63;101859.88;5032922;28;20535;-77
2022/05/04 09:49:10;;;;;;;6.45;3.50;;;;;;;15.31;46.21;101860.47;5032652;28;20057;-79
2022/05/04 09:51:37;;;;;;;7.85;4.15;;;;;;;15.31;48.76;101856.09;5031611;28;20047;-78
2022/05/04 09:54:13;;;;;;;4.88;3.15;;;;;;;15.51;49.06;101850.50;5032811;28;20029;-77
2022/05/04 09:56:39;;;;;;;5.90;3.63;;;;;;;15.74;47.45;101849.16;5032350;28;20053;-83
2022/05/04 09:59:07;;;;;;;12.13;5.50;;;;;;;15.65;45.50;101844.13;5031851;28;20047;-80
2022/05/04 10:01:33;;;;;;;10.48;4.80;;;;;;;15.60;46.67;101838.94;5032873;28;20025;-80
2022/05/04 10:04:00;;;;;;;10.60;5.17;;;;;;;15.49;47.12;101836.56;5032005;28;20398;-79
2022/05/04 10:06:29;;;;;;;10.50;5.03;;;;;;;15.55;47.34;101839.03;5031941;28;20056;-79
2022/05/04 10:08:54;;;;;;;7.45;3.95;;;;;;;15.76;48.57;101842.13;5032277;28;20026;-80
2022/05/04 10:11:20;;;;;;;5.23;3.10;;;;;;;16.04;47.55;101831.94;5032603;28;20037;-80
2022/05/04 10:13:46;;;;;;;5.53;3.30;;;;;;;16.30;46.13;101830.47;5031600;28;20029;-79
2022/05/04 10:16:13;;;;;;;4.40;2.80;;;;;;;16.46;47.34;101833.59;5032727;28;20107;-80
2022/05/04 10:18:41;;;;;;;3.58;2.83;;;;;;;16.62;46.48;101831.44;5031707;28;20071;-80
2022/05/04 10:21:12;;;;;;;5.50;3.00;;;;;;;16.83;46.65;101835.31;5032643;28;20026;-80
2022/05/04 10:23:42;;;;;;;3.42;2.60;;;;;;;17.04;47.04;101826.94;5032099;28;20037;-80
2022/05/04 10:26:12;;;;;;;3.03;2.33;;;;;;;17.26;47.49;101833.34;5031664;28;20021;-79
2022/05/04 10:28:41;;;;;;;7.82;3.90;;;;;;;17.37;43.41;101830.41;5031549;28;20029;-80
2022/05/04 10:31:10;;;;;;;5.80;3.20;;;;;;;17.42;46.08;101825.91;5032640;28;20404;-80
2022/05/04 10:33:37;;;;;;;14.18;6.40;;;;;;;16.81;42.37;101825.75;5031729;28;20461;-80
2022/05/04 10:36:19;;;;;;;14.95;7.00;;;;;;;16.01;44.40;101828.53;5032300;28;20091;-79
2022/05/04 10:38:50;;;;;;;13.27;6.32;;;;;;;15.90;44.43;101834.88;5033462;28;20470;-79
2022/05/04 10:41:33;;;;;;;8.70;4.57;;;;;;;16.09;45.87;101831.84;5035769;28;20026;-80
2022/05/04 10:43:58;;;;;;;7.38;4.35;;;;;;;16.44;44.38;101824.91;5036083;28;20030;-80
2022/05/04 10:46:24;;;;;;;4.93;3.30;;;;;;;16.77;46.46;101821.50;5036178;28;20143;-83
2022/05/04 10:49:04;;;;;;;3.70;2.80;;;;;;;17.17;45.21;101816.97;5034623;28;20025;-82
2022/05/04 10:51:35;;;;;;;5.25;3.03;;;;;;;17.47;44.96;101824.88;5036144;28;20053;-83
2022/05/04 10:54:01;;;;;;;10.65;4.85;;;;;;;17.47;43.60;101830.13;5035097;28;20037;-82
2022/05/04 10:56:28;;;;;;;10.32;4.82;;;;;;;17.40;44.68;101826.81;5036011;28;20389;-82
2022/05/04 10:58:56;;;;;;;4.70;3.22;;;;;;;17.62;44.69;101816.56;5035248;28;20030;-82
2022/05/04 11:01:28;;;;;;;4.38;3.10;;;;;;;17.87;44.63;101811.44;5035135;28;20028;-82
2022/05/04 11:04:09;;;;;;;3.20;2.50;;;;;;;18.19;44.95;101808.75;5034945;28;20029;-82
2022/05/04 11:06:52;;;;;;;3.60;2.60;;;;;;;18.50;43.14;101813.00;5036132;28;20473;-82
2022/05/04 11:09:19;;;;;;;3.50;2.45;;;;;;;18.72;43.50;101812.28;5035198;28;20036;-82
2022/05/04 11:11:50;;;;;;;5.50;3.03;;;;;;;18.76;41.66;101808.66;5035365;28;20151;-82
2022/05/04 11:14:17;;;;;;;3.75;2.53;;;;;;;18.79;41.28;101812.03;5035403;28;20489;-82
2022/05/04 11:16:44;;;;;;;7.10;3.50;;;;;;;18.82;39.98;101813.69;5034729;28;20432;-82
2022/05/04 11:19:12;;;;;;;5.65;3.40;;;;;;;18.80;40.22;101816.38;5035800;28;20029;-82
2022/05/04 11:21:50;;;;;;;9.02;3.90;;;;;;;18.77;41.07;101803.31;5035222;28;20029;-82
2022/05/04 11:24:16;;;;;;;9.23;4.18;;;;;;;18.81;41.01;101798.81;5035594;28;20108;-80
2022/05/04 11:26:46;;;;;;;6.85;4.05;;;;;;;18.88;42.44;101796.81;5034663;28;20552;-80
2022/05/04 11:29:13;;;;;;;4.18;3.00;;;;;;;19.13;42.71;101799.50;5034791;28;20022;-80
2022/05/04 11:31:59;;;;;;;3.70;2.78;;;;;;;19.37;42.56;101807.38;5035196;28;20025;-80
2022/05/04 11:34:29;;;;;;;4.40;2.90;;;;;;;19.57;39.73;101801.38;5035387;28;20029;-80
2022/05/04 11:37:01;;;;;;;5.47;3.30;;;;;;;19.57;38.51;101797.00;5034383;28;20048;-80
2022/05/04 11:39:28;;;;;;;7.10;3.80;;;;;;;19.49;40.22;101804.28;5035116;28;20033;-80
2022/05/04 11:41:59;;;;;;;5.38;3.28;;;;;;;19.53;41.49;101797.16;5034584;28;20037;-79
2022/05/04 11:44:26;;;;;;;4.95;2.90;;;;;;;19.64;41.65;101791.47;5034390;28;20152;-80
2022/05/04 11:46:54;;;;;;;3.63;2.60;;;;;;;19.82;40.83;101788.09;5034898;28;20033;-80
2022/05/04 11:49:21;;;;;;;4.47;2.67;;;;;;;20.01;40.70;101777.75;5034589;28;20025;-80
2022/05/04 11:51:47;;;;;;;9.48;3.88;;;;;;;19.99;37.33;101776.09;5033733;28;20107;-81
2022/05/04 11:54:12;;;;;;;8.90;4.00;;;;;;;19.81;37.87;101775.88;5035091;28;20040;-80
2022/05/04 11:56:38;;;;;;;9.87;5.20;;;;;;;19.57;38.45;101781.19;5034592;28;20029;-80
2022/05/04 11:59:05;;;;;;;11.87;5.57;;;;;;;19.31;37.15;101784.78;5034334;28;20461;-80